Time;durP1;ratioP1;P1;durP2;ratioP2;P2;SDS_P1;SDS_P2;PMS_P1;PMS_P2;Temp;Humidity;BMP_temperature;BMP_pressure;BME280_temperature;BME280_humidity;BME280_pressure;Samples;Min_cycle;Max_cycle;Signal;HPM_P1;HPM_P2
2022/03/20 00:00:42;;;;;;;6.50;3.10;;;9.60;60.00;;;;;;5052972;28;20055;-75
2022/03/20 00:03:09;;;;;;;5.47;2.65;;;9.60;60.10;;;;;;5053177;28;20064;-74
2022/03/20 00:05:38;;;;;;;8.43;4.25;;;9.70;60.20;;;;;;5053340;28;20032;-75
2022/03/20 00:08:08;;;;;;;9.65;4.43;;;9.70;59.50;;;;;;5052788;28;20049;-74
2022/03/20 00:10:37;;;;;;;8.43;4.32;;;9.40;60.00;;;;;;5037071;28;20115;-75
2022/03/20 00:13:10;;;;;;;11.05;4.50;;;9.30;60.40;;;;;;5051588;28;20110;-75
2022/03/20 00:15:40;;;;;;;8.43;4.40;;;9.30;61.00;;;;;;5052281;28;20024;-75
2022/03/20 00:18:06;;;;;;;10.27;4.95;;;9.10;61.30;;;;;;5052697;28;20057;-75
2022/03/20 00:20:41;;;;;;;8.68;4.47;;;9.20;61.40;;;;;;5052781;28;20025;-74
2022/03/20 00:23:12;;;;;;;11.65;5.78;;;9.20;61.10;;;;;;5052590;28;20031;-73
2022/03/20 00:25:39;;;;;;;13.30;4.80;;;9.10;61.00;;;;;;5052751;28;20061;-74
2022/03/20 00:28:10;;;;;;;12.10;5.20;;;9.10;61.80;;;;;;5053083;28;20033;-74
2022/03/20 00:30:35;;;;;;;9.73;4.68;;;9.10;62.40;;;;;;5052954;28;20105;-74
2022/03/20 00:33:01;;;;;;;8.57;5.15;;;9.00;61.70;;;;;;5052442;28;20469;-74
2022/03/20 00:35:28;;;;;;;10.68;5.63;;;9.00;61.90;;;;;;5052913;28;20565;-75
2022/03/20 00:37:54;;;;;;;7.10;5.10;;;8.90;61.90;;;;;;5052702;28;20032;-74
2022/03/20 00:40:20;;;;;;;11.40;6.10;;;8.90;62.20;;;;;;5052629;28;20021;-74
2022/03/20 00:42:46;;;;;;;12.77;6.28;;;8.90;62.20;;;;;;5052607;28;20020;-74
2022/03/20 00:45:11;;;;;;;11.38;6.65;;;8.80;62.20;;;;;;5052803;28;20525;-74
2022/03/20 00:47:38;;;;;;;15.57;6.20;;;8.80;62.50;;;;;;5052201;28;20036;-74
2022/03/20 00:50:04;;;;;;;12.93;6.30;;;8.70;62.80;;;;;;5052339;28;20468;-74
2022/03/20 00:52:32;;;;;;;12.13;6.35;;;8.60;62.70;;;;;;5056473;28;20039;-74
2022/03/20 00:54:58;;;;;;;10.82;6.20;;;8.50;63.30;;;;;;5056453;28;20029;-74
2022/03/20 00:57:23;;;;;;;10.27;5.97;;;8.60;64.10;;;;;;5056229;28;20419;-74
2022/03/20 00:59:49;;;;;;;12.15;6.28;;;8.60;63.40;;;;;;5056799;28;20052;-74
2022/03/20 01:02:15;;;;;;;10.38;7.28;;;8.60;63.30;;;;;;5056239;28;20032;-74
2022/03/20 01:04:41;;;;;;;16.00;6.72;;;8.60;63.50;;;;;;5056663;28;20087;-74
2022/03/20 01:07:07;;;;;;;10.75;6.53;;;8.60;63.20;;;;;;5056407;28;20021;-74
2022/03/20 01:09:32;;;;;;;14.05;7.43;;;8.60;63.20;;;;;;5056536;28;20041;-74
2022/03/20 01:11:59;;;;;;;12.27;7.45;;;8.50;63.40;;;;;;5055878;28;20079;-74
2022/03/20 01:14:26;;;;;;;11.13;7.00;;;8.40;64.00;;;;;;5056342;28;20108;-74
2022/03/20 01:16:54;;;;;;;13.35;7.00;;;8.30;64.20;;;;;;5055878;28;20132;-75
2022/03/20 01:19:24;;;;;;;12.93;6.25;;;8.10;64.70;;;;;;5056579;28;20053;-74
2022/03/20 01:21:50;;;;;;;10.10;6.35;;;8.20;65.10;;;;;;5056270;28;20025;-74
2022/03/20 01:24:16;;;;;;;10.68;5.57;;;8.30;65.50;;;;;;5056480;28;20061;-74
2022/03/20 01:26:42;;;;;;;12.80;7.35;;;8.50;65.60;;;;;;5055751;28;20060;-74
2022/03/20 01:29:07;;;;;;;10.35;6.35;;;8.50;64.40;;;;;;5056362;28;20488;-74
2022/03/20 01:31:34;;;;;;;11.50;7.30;;;8.30;64.50;;;;;;5055532;28;20099;-74
2022/03/20 01:34:00;;;;;;;12.70;6.65;;;8.00;65.60;;;;;;5056303;28;20025;-75
2022/03/20 01:36:27;;;;;;;11.43;6.85;;;7.80;66.40;;;;;;5055921;28;20380;-75
2022/03/20 01:38:53;;;;;;;11.35;6.95;;;7.80;66.90;;;;;;5055747;28;20036;-75
2022/03/20 01:41:18;;;;;;;14.18;7.10;;;7.80;68.20;;;;;;5056165;28;20031;-74
2022/03/20 01:43:50;;;;;;;11.85;6.60;;;7.60;67.80;;;;;;5055699;28;20024;-74
2022/03/20 01:46:16;;;;;;;13.63;7.07;;;7.70;68.50;;;;;;5056169;28;20384;-75
2022/03/20 01:48:42;;;;;;;12.65;6.40;;;7.70;68.50;;;;;;5055428;28;20025;-75
2022/03/20 01:51:10;;;;;;;9.25;6.20;;;7.60;68.70;;;;;;5055699;28;20038;-75
2022/03/20 01:53:35;;;;;;;10.60;5.78;;;7.50;69.30;;;;;;5055692;28;20082;-75
2022/03/20 01:56:01;;;;;;;12.00;6.20;;;7.50;69.60;;;;;;5055903;28;20021;-75
2022/03/20 01:58:27;;;;;;;16.15;6.43;;;7.50;70.00;;;;;;5053720;28;20017;-74
2022/03/20 02:00:52;;;;;;;14.98;6.13;;;7.20;71.00;;;;;;5038449;28;20051;-74
2022/03/20 02:03:19;;;;;;;11.55;5.90;;;7.00;71.90;;;;;;5044928;28;20076;-74
2022/03/20 02:05:44;;;;;;;11.43;5.75;;;7.00;72.70;;;;;;5054071;28;20380;-74
2022/03/20 02:08:13;;;;;;;14.48;6.28;;;7.10;73.10;;;;;;5053655;28;20051;-75
2022/03/20 02:10:40;;;;;;;13.63;5.85;;;7.00;73.40;;;;;;5054085;28;20049;-75
2022/03/20 02:13:06;;;;;;;10.73;5.30;;;7.10;74.40;;;;;;5053610;28;20029;-73
2022/03/20 02:15:33;;;;;;;10.60;5.28;;;7.20;73.80;;;;;;5055275;28;20029;-74
2022/03/20 02:17:59;;;;;;;9.65;5.38;;;7.30;74.10;;;;;;5054782;28;20491;-74
2022/03/20 02:20:25;;;;;;;8.93;4.93;;;7.30;73.70;;;;;;5055443;28;20112;-75
2022/03/20 02:22:50;;;;;;;10.88;5.47;;;7.30;74.30;;;;;;5055568;28;20402;-75
2022/03/20 02:25:17;;;;;;;13.00;5.68;;;7.20;74.50;;;;;;5054569;28;20032;-75
2022/03/20 02:27:44;;;;;;;12.73;5.43;;;7.20;75.20;;;;;;5055400;28;20025;-75
2022/03/20 02:30:15;;;;;;;9.85;4.90;;;7.30;75.30;;;;;;5054936;28;20391;-75
2022/03/20 02:32:43;;;;;;;13.63;5.15;;;7.40;75.30;;;;;;5054562;28;20115;-75
2022/03/20 02:35:13;;;;;;;10.13;5.50;;;7.30;75.30;;;;;;5054995;28;20040;-75
2022/03/20 02:37:50;;;;;;;10.00;5.30;;;7.30;76.80;;;;;;5055008;28;20033;-75
2022/03/20 02:40:18;;;;;;;10.55;5.20;;;7.40;76.70;;;;;;5054854;28;20024;-75
2022/03/20 02:42:46;;;;;;;12.88;6.20;;;7.40;76.40;;;;;;5046922;28;20025;-75
2022/03/20 02:45:21;;;;;;;14.00;5.90;;;7.30;76.50;;;;;;5054681;28;20090;-75
2022/03/20 02:47:48;;;;;;;11.52;5.80;;;7.20;77.40;;;;;;5039639;28;20025;-75
2022/03/20 02:50:20;;;;;;;12.05;6.00;;;7.30;77.60;;;;;;5054452;28;20037;-75
2022/03/20 02:52:48;;;;;;;7.68;5.60;;;7.40;77.40;;;;;;5041071;28;20083;-75
2022/03/20 02:55:17;;;;;;;9.65;6.00;;;7.40;77.30;;;;;;5053887;28;20032;-75
2022/03/20 02:57:44;;;;;;;10.90;5.72;;;7.30;77.40;;;;;;5039057;28;20099;-75
2022/03/20 03:00:11;;;;;;;9.98;5.50;;;7.10;78.70;;;;;;5053923;28;20017;-75
2022/03/20 03:02:45;;;;;;;10.90;6.18;;;7.10;78.50;;;;;;5054656;28;20104;-76
2022/03/20 03:05:15;;;;;;;12.30;6.10;;;7.10;78.80;;;;;;5053405;28;20036;-74
2022/03/20 03:13:15;;;;;;;14.02;8.02;;;7.30;78.40;;;;;;5053858;28;20553;-76
2022/03/20 03:15:41;;;;;;;10.73;6.53;;;7.10;78.60;;;;;;5054277;28;20019;-74
2022/03/20 03:18:07;;;;;;;12.75;7.05;;;7.10;79.20;;;;;;5053573;28;20472;-75
2022/03/20 03:20:33;;;;;;;12.18;7.45;;;7.20;78.70;;;;;;5054040;28;20032;-75
2022/03/20 03:22:59;;;;;;;14.30;7.50;;;7.10;78.60;;;;;;5054172;28;20434;-75
2022/03/20 03:25:25;;;;;;;10.93;6.90;;;7.20;78.70;;;;;;5054568;28;20025;-75
2022/03/20 03:27:51;;;;;;;13.07;6.80;;;7.10;79.10;;;;;;5053871;28;20517;-75
2022/03/20 03:30:17;;;;;;;13.85;7.70;;;7.20;80.00;;;;;;5054011;28;20262;-75
2022/03/20 03:32:44;;;;;;;12.10;7.53;;;7.30;78.30;;;;;;5053603;28;20035;-76
2022/03/20 03:37:55;;;;;;;13.55;7.35;;;7.30;77.80;;;;;;5049341;28;20082;-74
2022/03/20 03:40:21;;;;;;;16.33;8.48;;;7.40;78.00;;;;;;5053347;28;20037;-75
2022/03/20 03:42:46;;;;;;;14.52;8.15;;;7.30;77.10;;;;;;5053674;28;20120;-75
2022/03/20 03:45:12;;;;;;;16.55;8.73;;;7.20;77.60;;;;;;5053640;28;20033;-75
2022/03/20 03:47:38;;;;;;;16.23;9.07;;;7.20;77.80;;;;;;5053783;28;20115;-75
2022/03/20 03:50:05;;;;;;;19.75;8.95;;;7.00;77.90;;;;;;5053449;28;20123;-73
2022/03/20 03:52:30;;;;;;;13.57;8.38;;;6.90;78.40;;;;;;5052956;28;20047;-74
2022/03/20 03:54:56;;;;;;;14.40;8.18;;;6.90;78.40;;;;;;5053459;28;20116;-74
2022/03/20 03:57:21;;;;;;;14.93;9.70;;;6.90;79.10;;;;;;5053250;28;20032;-75
2022/03/20 03:59:47;;;;;;;16.17;8.25;;;6.90;78.90;;;;;;5053116;28;20464;-75
2022/03/20 04:02:14;;;;;;;15.00;8.90;;;7.00;79.30;;;;;;5053083;28;20472;-75
2022/03/20 04:04:41;;;;;;;16.90;8.95;;;7.10;77.70;;;;;;5053489;28;20051;-75
2022/03/20 04:07:07;;;;;;;17.35;9.27;;;7.10;78.30;;;;;;5053150;28;20036;-75
2022/03/20 04:09:33;;;;;;;17.00;9.63;;;7.20;77.40;;;;;;5053240;28;20044;-75
2022/03/20 04:11:59;;;;;;;16.98;9.75;;;7.20;77.00;;;;;;5052771;28;20476;-74
2022/03/20 04:14:25;;;;;;;13.20;9.20;;;7.10;76.90;;;;;;5053197;28;20025;-75
2022/03/20 04:16:54;;;;;;;15.63;9.70;;;7.00;77.40;;;;;;5052688;28;20606;-75
2022/03/20 04:19:19;;;;;;;14.57;9.00;;;7.00;77.30;;;;;;5052806;28;20496;-76
2022/03/20 04:21:45;;;;;;;17.13;9.63;;;7.00;77.80;;;;;;5053279;28;20115;-76
2022/03/20 04:24:11;;;;;;;19.50;10.05;;;7.00;76.90;;;;;;5052343;28;20062;-76
2022/03/20 04:26:37;;;;;;;16.05;9.77;;;7.00;77.80;;;;;;5052690;28;20032;-77
2022/03/20 04:29:02;;;;;;;18.55;10.02;;;7.00;76.80;;;;;;5052485;28;20474;-77
2022/03/20 04:31:29;;;;;;;16.88;10.55;;;7.00;76.50;;;;;;5052497;28;20041;-76
2022/03/20 04:33:56;;;;;;;20.77;11.18;;;6.90;76.70;;;;;;5052471;28;20032;-76
2022/03/20 04:36:23;;;;;;;19.70;11.18;;;6.90;77.20;;;;;;5052862;28;20538;-77
2022/03/20 04:38:50;;;;;;;16.35;9.85;;;6.90;76.70;;;;;;5052521;28;20025;-76
2022/03/20 04:41:17;;;;;;;19.20;11.07;;;6.80;76.50;;;;;;5053070;28;20443;-76
2022/03/20 04:43:44;;;;;;;18.50;10.82;;;6.80;76.50;;;;;;5052398;28;20021;-76
2022/03/20 04:46:10;;;;;;;17.42;9.95;;;6.80;76.20;;;;;;5052637;28;20063;-76
2022/03/20 04:59:33;;;;;;;17.45;10.73;;;7.20;74.20;;;;;;5052205;28;20047;-75
2022/03/20 05:01:59;;;;;;;20.60;10.75;;;7.20;74.50;;;;;;5052676;28;20116;-76
2022/03/20 05:04:24;;;;;;;17.25;10.45;;;7.10;73.70;;;;;;5052194;28;20027;-76
2022/03/20 05:06:50;;;;;;;19.33;10.40;;;7.00;74.20;;;;;;5052586;28;20040;-76
2022/03/20 05:14:44;;;;;;;17.67;11.00;;;7.20;73.60;;;;;;5052374;28;20511;-76
2022/03/20 05:17:10;;;;;;;18.67;10.32;;;7.20;73.90;;;;;;5052786;28;20040;-76
2022/03/20 05:19:37;;;;;;;17.58;10.77;;;7.30;73.40;;;;;;5052410;28;20017;-76
2022/03/20 05:22:04;;;;;;;18.48;10.70;;;7.20;73.00;;;;;;5052397;28;20078;-76
2022/03/20 05:24:30;;;;;;;19.52;11.25;;;7.20;72.80;;;;;;5052656;28;20028;-76
2022/03/20 05:26:56;;;;;;;18.92;11.23;;;7.30;72.10;;;;;;5052381;28;20056;-76
2022/03/20 05:29:22;;;;;;;15.70;10.75;;;7.40;71.90;;;;;;5052187;28;20052;-76
2022/03/20 05:31:49;;;;;;;19.80;10.70;;;7.30;72.00;;;;;;5052025;28;20480;-76
2022/03/20 05:34:17;;;;;;;18.63;10.80;;;7.30;71.00;;;;;;5052131;28;20065;-76
2022/03/20 05:36:43;;;;;;;18.67;11.07;;;7.30;71.50;;;;;;5053911;28;20380;-76
2022/03/20 05:39:09;;;;;;;16.92;10.25;;;7.30;71.00;;;;;;5055686;28;20028;-76
2022/03/20 05:41:46;;;;;;;16.27;11.45;;;7.20;71.50;;;;;;5045050;28;20113;-76
2022/03/20 05:44:13;;;;;;;15.43;10.15;;;7.30;71.00;;;;;;5037439;28;20029;-76
2022/03/20 05:46:40;;;;;;;17.63;11.13;;;7.40;71.40;;;;;;5037494;28;20037;-76
2022/03/20 05:49:06;;;;;;;18.88;11.68;;;7.50;70.30;;;;;;5037507;28;20464;-76
2022/03/20 05:51:34;;;;;;;15.35;10.75;;;7.50;70.00;;;;;;5037255;28;20048;-76
2022/03/20 05:54:01;;;;;;;17.15;10.85;;;7.50;70.30;;;;;;5037424;28;20026;-76
2022/03/20 05:59:12;;;;;;;21.50;11.32;;;7.60;70.00;;;;;;5037205;28;20029;-76
2022/03/20 06:01:37;;;;;;;23.63;11.50;;;7.60;69.50;;;;;;5048865;28;20029;-76
2022/03/20 06:04:05;;;;;;;20.80;11.75;;;7.50;69.40;;;;;;5055321;28;20424;-76
2022/03/20 06:06:35;;;;;;;18.10;10.93;;;7.50;69.00;;;;;;5055674;28;20036;-76
2022/03/20 06:09:02;;;;;;;17.05;11.15;;;7.30;69.20;;;;;;5055275;28;20116;-75
2022/03/20 06:11:27;;;;;;;17.67;11.07;;;7.30;69.20;;;;;;5055131;28;20144;-75
2022/03/20 06:13:53;;;;;;;19.35;11.68;;;7.30;69.10;;;;;;5055413;28;20044;-75
2022/03/20 06:16:21;;;;;;;22.10;12.00;;;7.20;69.80;;;;;;5055505;28;20029;-75
2022/03/20 06:18:47;;;;;;;20.10;12.00;;;7.30;69.90;;;;;;5055566;28;20033;-75
2022/03/20 06:21:13;;;;;;;16.77;11.27;;;7.20;69.10;;;;;;5054856;28;20107;-75
2022/03/20 06:23:39;;;;;;;17.35;11.35;;;7.10;70.10;;;;;;5055053;28;20029;-75
2022/03/20 06:26:06;;;;;;;21.58;12.30;;;7.20;69.60;;;;;;5055019;28;20116;-75
2022/03/20 06:28:32;;;;;;;19.48;12.48;;;7.30;69.40;;;;;;5055103;28;20052;-75
2022/03/20 06:30:58;;;;;;;21.77;12.00;;;7.20;68.70;;;;;;5054147;28;20072;-75
2022/03/20 06:33:27;;;;;;;21.90;12.50;;;7.10;69.10;;;;;;5054461;28;20068;-75
2022/03/20 06:35:53;;;;;;;20.80;11.73;;;7.00;68.90;;;;;;5054803;28;20035;-75
2022/03/20 06:38:20;;;;;;;18.10;11.43;;;7.00;69.60;;;;;;5054369;28;20047;-75
2022/03/20 06:40:46;;;;;;;18.83;11.75;;;7.00;69.30;;;;;;5054913;28;20361;-75
2022/03/20 06:43:13;;;;;;;19.60;12.25;;;7.10;69.80;;;;;;5054504;28;20032;-74
2022/03/20 06:45:41;;;;;;;21.85;11.90;;;7.20;68.60;;;;;;5054689;28;20083;-74
2022/03/20 06:48:07;;;;;;;22.58;12.85;;;7.20;68.20;;;;;;5053317;28;20025;-75
2022/03/20 06:50:33;;;;;;;19.23;12.30;;;7.20;67.90;;;;;;5053652;28;20054;-75
2022/03/20 06:53:02;;;;;;;19.80;12.40;;;7.30;67.30;;;;;;5053505;28;20052;-75
2022/03/20 06:55:30;;;;;;;24.98;12.50;;;7.20;68.00;;;;;;5054060;28;20468;-75
2022/03/20 06:57:56;;;;;;;19.73;12.88;;;7.30;68.10;;;;;;5054193;28;20037;-75
2022/03/20 07:00:23;;;;;;;22.63;13.10;;;7.30;66.70;;;;;;5054630;28;20021;-76
2022/03/20 07:02:49;;;;;;;18.15;12.38;;;7.30;66.40;;;;;;5053919;28;20476;-75
2022/03/20 07:05:14;;;;;;;20.42;12.90;;;7.40;67.20;;;;;;5053643;28;20031;-75
2022/03/20 07:07:40;;;;;;;21.17;12.70;;;7.40;65.90;;;;;;5053834;28;20051;-76
2022/03/20 07:10:07;;;;;;;19.52;12.63;;;7.30;65.90;;;;;;5054108;28;20025;-75
2022/03/20 07:12:33;;;;;;;22.75;13.50;;;7.40;67.60;;;;;;5053302;28;20037;-76
2022/03/20 07:14:59;;;;;;;22.02;11.80;;;7.50;65.90;;;;;;5053742;28;20530;-75
2022/03/20 07:17:25;;;;;;;17.35;11.52;;;7.60;65.50;;;;;;5052414;28;20033;-76
2022/03/20 07:19:50;;;;;;;20.70;12.55;;;7.70;65.60;;;;;;5052682;28;20468;-76
2022/03/20 07:22:19;;;;;;;18.88;12.10;;;8.00;64.70;;;;;;5052692;28;20032;-75
2022/03/20 07:24:45;;;;;;;19.20;12.55;;;8.00;63.40;;;;;;5053319;28;20031;-75
2022/03/20 07:29:56;;;;;;;20.48;12.23;;;8.20;63.20;;;;;;5052807;28;20055;-75
2022/03/20 07:32:22;;;;;;;21.00;12.73;;;8.20;62.70;;;;;;5052243;28;20032;-75
2022/03/20 07:34:47;;;;;;;21.80;12.98;;;8.20;61.60;;;;;;5052458;28;20033;-75
2022/03/20 07:37:18;;;;;;;20.38;13.00;;;8.10;61.90;;;;;;5051807;28;20033;-75
2022/03/20 07:39:49;;;;;;;20.40;12.55;;;8.10;62.10;;;;;;5052762;28;20107;-75
2022/03/20 07:42:16;;;;;;;20.65;14.30;;;8.20;62.80;;;;;;5051981;28;20028;-75
2022/03/20 07:44:42;;;;;;;21.30;13.65;;;8.40;61.10;;;;;;5052394;28;20047;-76
2022/03/20 07:47:08;;;;;;;21.45;13.77;;;8.40;60.40;;;;;;5052268;28;20025;-76
2022/03/20 07:49:37;;;;;;;22.30;14.13;;;8.50;60.50;;;;;;5052219;28;20036;-78
2022/03/20 07:52:06;;;;;;;22.48;13.57;;;8.40;60.10;;;;;;5052395;28;20044;-78
2022/03/20 07:54:32;;;;;;;22.23;13.18;;;8.40;60.20;;;;;;5047761;28;20458;-78
2022/03/20 07:56:58;;;;;;;26.48;13.82;;;8.30;60.20;;;;;;5051188;28;20047;-78
2022/03/20 07:59:24;;;;;;;23.48;13.68;;;8.30;60.10;;;;;;5058191;28;20780;-78
2022/03/20 08:01:49;;;;;;;24.05;13.45;;;8.30;60.00;;;;;;5058289;28;20028;-78
2022/03/20 08:04:16;;;;;;;24.95;14.38;;;8.30;59.50;;;;;;5052937;28;20021;-77
2022/03/20 08:06:42;;;;;;;20.35;14.05;;;8.20;58.90;;;;;;5053259;28;20372;-77
2022/03/20 08:09:08;;;;;;;25.42;14.68;;;8.20;59.80;;;;;;5052715;28;20056;-77
2022/03/20 08:11:33;;;;;;;22.13;13.45;;;8.20;58.90;;;;;;5050513;28;20110;-77
2022/03/20 08:13:59;;;;;;;22.30;13.93;;;8.10;59.70;;;;;;5052334;28;20420;-78
2022/03/20 08:16:28;;;;;;;26.33;14.00;;;8.10;59.30;;;;;;5050176;28;20036;-78
2022/03/20 08:18:55;;;;;;;23.15;14.05;;;8.00;59.30;;;;;;5052482;28;20013;-77
2022/03/20 08:21:21;;;;;;;22.95;14.57;;;8.00;59.80;;;;;;5053173;28;20090;-77
2022/03/20 08:23:46;;;;;;;25.20;14.43;;;8.00;59.60;;;;;;5051837;28;20047;-77
2022/03/20 08:26:13;;;;;;;21.38;14.30;;;8.00;59.60;;;;;;5052677;28;20495;-78
2022/03/20 08:29:00;;;;;;;23.67;14.50;;;8.10;59.80;;;;;;5052966;28;20036;-77
2022/03/20 08:31:29;;;;;;;21.25;14.50;;;8.20;59.40;;;;;;5052727;28;20037;-79
2022/03/20 08:33:59;;;;;;;23.13;14.52;;;8.10;58.50;;;;;;5047823;28;20021;-80
2022/03/20 08:36:24;;;;;;;24.92;15.45;;;8.20;59.20;;;;;;5052830;28;20083;-81
2022/03/20 08:38:51;;;;;;;21.92;14.55;;;8.10;58.30;;;;;;5052377;28;20040;-80
2022/03/20 08:41:16;;;;;;;28.08;15.90;;;8.20;58.90;;;;;;5052179;28;20025;-80
2022/03/20 08:43:42;;;;;;;26.73;15.30;;;8.30;58.00;;;;;;5052132;28;20052;-79
2022/03/20 08:46:07;;;;;;;25.48;15.60;;;8.40;58.00;;;;;;5052337;28;20082;-80
2022/03/20 08:48:33;;;;;;;21.75;14.98;;;8.30;58.30;;;;;;5053023;28;20031;-79
2022/03/20 08:50:58;;;;;;;24.52;14.93;;;8.30;58.10;;;;;;5052505;28;20033;-79
2022/03/20 08:53:25;;;;;;;24.20;15.32;;;8.30;56.90;;;;;;5052292;28;20037;-77
2022/03/20 08:55:51;;;;;;;24.45;14.93;;;8.30;57.80;;;;;;5051723;28;20476;-79
2022/03/20 08:58:17;;;;;;;22.98;14.98;;;8.40;57.50;;;;;;5050434;28;20033;-81
2022/03/20 09:00:44;;;;;;;28.73;14.60;;;8.40;57.50;;;;;;5051631;28;20021;-85
2022/03/20 09:03:10;;;;;;;24.73;15.48;;;8.50;57.40;;;;;;5050921;28;20078;-78
2022/03/20 09:05:37;;;;;;;26.27;15.50;;;8.60;57.10;;;;;;5050727;28;20051;-78
2022/03/20 09:08:04;;;;;;;23.80;16.27;;;8.60;56.90;;;;;;5051244;28;20053;-81
2022/03/20 09:10:29;;;;;;;30.23;16.60;;;8.60;56.80;;;;;;5034182;28;20092;-80
2022/03/20 09:12:55;;;;;;;25.15;16.33;;;8.60;56.20;;;;;;5050354;28;20045;-80
2022/03/20 09:15:22;;;;;;;24.17;15.68;;;8.60;56.30;;;;;;5053402;28;20029;-81
2022/03/20 09:20:39;;;;;;;26.50;16.05;;;8.60;55.90;;;;;;5054854;28;20112;-81
2022/03/20 09:23:06;;;;;;;23.73;15.95;;;8.70;55.70;;;;;;5056131;28;20044;-81
2022/03/20 09:25:32;;;;;;;27.85;16.88;;;8.70;55.50;;;;;;5056302;28;20029;-78
2022/03/20 09:28:00;;;;;;;26.50;16.50;;;8.90;56.10;;;;;;5056323;28;20075;-82
2022/03/20 09:30:25;;;;;;;26.17;15.65;;;8.90;55.30;;;;;;5056272;28;20021;-82
2022/03/20 09:32:51;;;;;;;25.40;16.75;;;9.00;55.10;;;;;;5056624;28;20031;-80
2022/03/20 09:35:17;;;;;;;25.40;16.40;;;9.10;54.90;;;;;;5055518;28;20029;-78
2022/03/20 09:37:43;;;;;;;27.73;16.95;;;9.10;54.50;;;;;;5055306;28;20369;-79
2022/03/20 09:40:10;;;;;;;29.92;16.25;;;9.10;54.70;;;;;;5055307;28;20029;-80
2022/03/20 09:42:36;;;;;;;26.70;16.17;;;9.10;54.80;;;;;;5055917;28;20035;-77
2022/03/20 09:45:04;;;;;;;24.50;16.67;;;9.20;54.60;;;;;;5055493;28;20024;-81
2022/03/20 09:47:30;;;;;;;24.50;15.98;;;9.30;55.00;;;;;;5055697;28;20104;-75
2022/03/20 09:49:56;;;;;;;27.92;16.55;;;9.50;53.90;;;;;;5055386;28;20120;-75
2022/03/20 09:52:23;;;;;;;22.23;15.93;;;9.70;53.60;;;;;;5055114;28;20047;-76
2022/03/20 09:54:49;;;;;;;27.10;17.02;;;9.90;53.90;;;;;;5055129;28;20045;-76
2022/03/20 09:57:15;;;;;;;25.98;17.10;;;10.20;54.70;;;;;;5056274;28;20060;-76
2022/03/20 09:59:41;;;;;;;25.77;16.85;;;10.40;53.40;;;;;;5055251;28;20376;-77
2022/03/20 10:02:11;;;;;;;26.77;17.65;;;10.60;53.70;;;;;;5055351;28;20036;-77
2022/03/20 10:05:00;;;;;;;27.98;18.02;;;10.70;53.20;;;;;;5055445;28;20033;-76
2022/03/20 10:07:39;;;;;;;30.27;18.35;;;10.90;51.20;;;;;;5055595;28;20041;-74
2022/03/20 10:10:26;;;;;;;25.35;17.00;;;10.90;50.30;;;;;;5053988;28;20059;-77
2022/03/20 10:12:54;;;;;;;26.23;17.95;;;10.80;50.20;;;;;;5055589;28;20546;-78
2022/03/20 10:15:34;;;;;;;24.58;17.48;;;10.90;51.40;;;;;;5055169;28;20029;-75
2022/03/20 10:18:24;;;;;;;29.48;17.73;;;10.90;51.90;;;;;;5055048;28;20036;-78
2022/03/20 10:21:00;;;;;;;26.05;17.63;;;11.10;51.10;;;;;;5041786;28;20020;-79
2022/03/20 10:23:41;;;;;;;26.88;18.08;;;11.30;50.50;;;;;;5053441;28;20029;-78
2022/03/20 10:26:17;;;;;;;29.15;19.48;;;11.40;50.30;;;;;;5055451;28;20036;-80
2022/03/20 10:28:45;;;;;;;28.48;18.80;;;11.40;50.00;;;;;;5055310;28;20028;-78
2022/03/20 10:31:17;;;;;;;28.67;19.85;;;11.50;49.70;;;;;;5054895;28;20025;-80
2022/03/20 10:33:46;;;;;;;28.48;17.98;;;11.50;49.50;;;;;;5054652;28;20024;-79
2022/03/20 10:36:16;;;;;;;30.35;19.02;;;11.70;49.60;;;;;;5054718;28;20033;-78
2022/03/20 10:38:48;;;;;;;27.08;17.63;;;11.70;49.70;;;;;;5055206;28;20056;-77
2022/03/20 10:41:34;;;;;;;32.72;19.33;;;11.80;49.30;;;;;;5054859;28;20036;-80
2022/03/20 10:44:01;;;;;;;26.92;18.83;;;11.60;48.70;;;;;;5054555;28;20480;-77
2022/03/20 10:46:32;;;;;;;32.05;20.20;;;11.40;48.90;;;;;;5054251;28;20135;-78
2022/03/20 10:49:00;;;;;;;29.65;20.10;;;11.20;49.60;;;;;;5054757;28;20095;-78
2022/03/20 10:51:42;;;;;;;31.00;20.45;;;11.10;49.40;;;;;;5054218;28;20051;-78
2022/03/20 10:54:15;;;;;;;30.08;20.08;;;11.00;50.00;;;;;;5051155;28;20025;-79
2022/03/20 10:56:59;;;;;;;29.92;20.25;;;10.90;50.60;;;;;;5054161;28;20049;-79
2022/03/20 10:59:29;;;;;;;30.17;20.83;;;10.80;51.40;;;;;;5054744;28;20044;-78
2022/03/20 11:01:57;;;;;;;32.75;19.27;;;10.60;50.60;;;;;;5054344;28;20104;-79
2022/03/20 11:04:24;;;;;;;30.73;20.45;;;10.50;51.20;;;;;;5054060;28;20494;-79
2022/03/20 11:06:54;;;;;;;30.80;20.25;;;10.50;50.80;;;;;;5054410;28;20380;-78
2022/03/20 11:09:20;;;;;;;33.13;19.45;;;10.50;51.00;;;;;;5053817;28;20135;-80
2022/03/20 11:11:48;;;;;;;31.38;20.75;;;10.40;50.90;;;;;;5053733;28;20037;-80
2022/03/20 11:14:15;;;;;;;31.15;19.70;;;10.30;50.80;;;;;;5053987;28;20025;-79
2022/03/20 11:16:42;;;;;;;26.40;19.50;;;10.30;51.30;;;;;;5054075;28;20361;-79
2022/03/20 11:19:12;;;;;;;34.05;20.92;;;10.30;51.20;;;;;;5053713;28;20456;-80
2022/03/20 11:21:43;;;;;;;29.67;20.83;;;10.30;51.40;;;;;;5053903;28;20086;-81
2022/03/20 11:24:10;;;;;;;31.27;20.80;;;10.20;51.90;;;;;;5053965;28;20021;-79
2022/03/20 11:26:39;;;;;;;26.63;18.42;;;10.20;51.90;;;;;;5053760;28;20040;-78
2022/03/20 11:29:08;;;;;;;27.48;19.40;;;10.30;52.20;;;;;;5053694;28;20090;-78
2022/03/20 11:31:36;;;;;;;32.28;21.20;;;10.40;51.90;;;;;;5051064;28;20024;-78
2022/03/20 11:34:07;;;;;;;29.33;20.40;;;10.50;51.70;;;;;;5053024;28;20029;-78
2022/03/20 11:37:11;;;;;;;29.27;20.23;;;10.40;51.90;;;;;;5053189;28;20029;-82
2022/03/20 11:39:39;;;;;;;30.77;20.75;;;10.50;52.50;;;;;;5049712;28;20056;-81
2022/03/20 11:42:28;;;;;;;27.23;19.23;;;10.50;53.10;;;;;;5053336;28;20033;-80
2022/03/20 11:44:59;;;;;;;28.90;19.77;;;10.50;53.20;;;;;;5053408;28;20099;-80
2022/03/20 11:47:29;;;;;;;30.38;21.05;;;10.50;53.90;;;;;;5053596;28;20025;-76
2022/03/20 11:50:23;;;;;;;33.30;21.27;;;10.50;54.20;;;;;;5050393;28;20075;-76
2022/03/20 11:52:50;;;;;;;28.88;21.25;;;10.40;54.10;;;;;;5034392;28;20037;-77
2022/03/20 11:55:36;;;;;;;30.55;21.33;;;10.40;54.40;;;;;;5053377;28;20033;-76
2022/03/20 11:58:05;;;;;;;29.60;20.92;;;10.40;55.10;;;;;;5052809;28;20029;-76
2022/03/20 12:00:34;;;;;;;32.65;22.05;;;10.40;55.50;;;;;;5053396;28;20025;-76
2022/03/20 12:03:08;;;;;;;28.98;20.20;;;10.50;55.10;;;;;;5053164;28;20021;-77
2022/03/20 12:06:14;;;;;;;32.15;20.77;;;10.50;54.80;;;;;;5037566;28;20486;-77
2022/03/20 12:08:51;;;;;;;29.67;20.42;;;10.60;54.70;;;;;;5041632;28;20039;-77
2022/03/20 12:11:47;;;;;;;32.45;21.00;;;10.70;54.60;;;;;;5053155;28;20066;-77
2022/03/20 12:14:42;;;;;;;31.42;21.77;;;10.80;53.80;;;;;;5052900;28;20076;-77
2022/03/20 12:17:08;;;;;;;36.58;22.35;;;10.80;53.50;;;;;;5053254;28;20079;-76
2022/03/20 12:19:53;;;;;;;29.35;20.35;;;10.70;53.10;;;;;;5052862;28;20029;-77
2022/03/20 12:22:19;;;;;;;31.15;21.35;;;10.60;53.40;;;;;;5052600;28;20032;-77
2022/03/20 12:24:54;;;;;;;32.83;22.40;;;10.60;53.30;;;;;;5052699;28;20029;-76
2022/03/20 12:27:20;;;;;;;31.92;21.05;;;10.70;53.40;;;;;;5036382;28;20496;-77
2022/03/20 12:29:46;;;;;;;30.65;21.48;;;10.60;54.70;;;;;;5046577;28;20052;-76
2022/03/20 12:32:13;;;;;;;29.15;21.15;;;10.60;53.80;;;;;;5043412;28;20045;-76
2022/03/20 12:34:43;;;;;;;31.73;21.35;;;10.70;53.50;;;;;;5034335;28;20040;-76
2022/03/20 12:37:27;;;;;;;31.17;21.13;;;10.70;53.30;;;;;;5040781;28;20025;-76
2022/03/20 12:39:57;;;;;;;31.30;20.70;;;10.70;53.60;;;;;;5035185;28;20030;-76
2022/03/20 12:42:23;;;;;;;36.85;22.85;;;10.70;53.30;;;;;;5042215;28;20041;-76
2022/03/20 12:44:51;;;;;;;32.70;21.45;;;10.70;52.70;;;;;;5052755;28;20025;-76
2022/03/20 12:47:22;;;;;;;30.30;21.20;;;10.80;52.80;;;;;;5051411;28;20048;-76
2022/03/20 12:50:11;;;;;;;33.50;22.90;;;10.80;52.70;;;;;;5052584;28;20523;-76
2022/03/20 12:52:38;;;;;;;30.45;20.30;;;10.90;52.80;;;;;;5051484;28;20049;-76
2022/03/20 12:55:09;;;;;;;31.27;21.83;;;10.90;52.70;;;;;;5052460;28;20435;-77
2022/03/20 12:57:47;;;;;;;35.10;22.05;;;10.90;52.50;;;;;;5051794;28;20025;-76
2022/03/20 13:00:13;;;;;;;33.25;21.88;;;10.80;52.70;;;;;;5052283;28;20024;-76
2022/03/20 13:02:57;;;;;;;29.67;21.05;;;10.80;53.40;;;;;;5052865;28;20075;-76
2022/03/20 13:05:24;;;;;;;30.58;21.10;;;10.70;52.80;;;;;;5052666;28;20020;-77
2022/03/20 13:07:53;;;;;;;33.30;22.08;;;10.70;53.00;;;;;;5051960;28;20049;-76
2022/03/20 13:10:38;;;;;;;38.75;23.02;;;10.80;53.70;;;;;;5051996;28;20037;-76
2022/03/20 13:13:06;;;;;;;34.67;23.35;;;10.80;54.20;;;;;;5051405;28;20099;-76
2022/03/20 13:15:36;;;;;;;34.08;23.35;;;10.70;54.00;;;;;;5052038;28;20025;-76
2022/03/20 13:18:05;;;;;;;31.58;22.08;;;10.70;54.60;;;;;;5052357;28;20040;-76